WARNING - Change wsUserSettings.php: $SITE["topfolder"] from : DATOS/ to: ./
Welcome to our new website - Welkom op onze vernieuwde website - Bienvenue sur notre nouveau site web - Willkommen auf unserer neuen Website
Check our progress frequently. Prüfen Sie unsere Fortschritte regelmäßig. Consultez notre progression fréquemment. Komt u straks nog eens terug


visit paypall to install this item



Thunder radar more information blitzortung!


Rain radar more information rain snow radar


Visita nuestra red de sitios de meteo:

Template documentation
and downloads

And another site



No particular awareness of the weather is required.    There are no Weather-warnings

Informes METAR proximidad

   
EHVK - Volkel Rnlafb, Netherlands
Distancia hasta la estación: SW 18 km
Actualización: 30-05-2020 22:25
Claros  
Claros  
   Viento: East 11.1 km/h
Viento: East 11.1 km/h
Temperatura: 15°C
Punto de rocio: 4°C
Humedad: 48%
Barometro: 1022 hPa
Nublado: Claros
Visibilidad: More than 10 km
detalles de la nube: Claros
EHVK 302025Z AUTO 08006KT 9999 NCD 15/04 Q1022 BLU
EDLV - Niederrhein, Germany
Distancia hasta la estación: SE 25 km
Actualización: 29-05-2020 13:50
NO actual
Claros  
Claros  
   Viento: varía 7.4 km/h
Viento: varía 7.4 km/h
Temperatura: 21°C
Punto de rocio: 4°C
Humedad: 33%
Barometro: 1027 hPa
Visibilidad: More than 10 km
detalles de la nube: Claros
EDLV 291150Z VRB04KT CAVOK 21/04 Q1027
EHDL - Deelen Rnlafb, Netherlands
Distancia hasta la estación: N 35 km
Actualización: 30-05-2020 22:25
Nublado  
Nublado  
   Viento: ENE 7.4 km/h
Viento: ENE 7.4 km/h
Temperatura: 18°C
Punto de rocio: 4°C
Humedad: 40%
Barometro: 1023 hPa
Nublado: Nublado
Visibilidad: More than 10 km
detalles de la nube: Nublado 7900 ft
EHDL 302025Z AUTO 07004KT 020V120 9999 OVC079 18/04 Q1023 BLU
EHEH - Eindhoven Rnlafb, Netherlands
Distancia hasta la estación: SW 48 km
Actualización: 30-05-2020 21:55
Claros  
Claros  
   Viento: East 14.8 km/h
Viento: East 14.8 km/h
Temperatura: 20°C
Punto de rocio: 4°C
Humedad: 35%
Barometro: 1021 hPa
Nublado: Claros
Visibilidad: More than 10 km
detalles de la nube: Claros
EHEH 301955Z AUTO 08008KT 040V110 9999 NCD 20/04 Q1021 BLU
EHGR - Gilze-Rijen Rnla, Netherlands
Distancia hasta la estación: WSW 70 km
Actualización: 30-05-2020 22:25
Claros  
Claros  
   Viento: ENE 11.1 km/h
Viento: ENE 11.1 km/h
Temperatura: 18°C
Punto de rocio: 3°C
Humedad: 37%
Barometro: 1022 hPa
Nublado: Claros
Visibilidad: More than 10 km
detalles de la nube: Claros
EHGR 302025Z AUTO 07006KT 020V120 9999 NCD 18/03 Q1022 BLU
EBBL - Kleine-Brogel(Ba, Belgium
Distancia hasta la estación: SSW 71 km
Actualización: 30-05-2020 17:55
NO actual
Claros  
Claros  
   Viento: NE 18.5 km/h
Viento: NE 18.5 km/h
Temperatura: 24°C
Punto de rocio: 4°C
Humedad: 27%
Barometro: 1021 hPa
Nublado: Claros
Visibilidad: More than 10 km
detalles de la nube: Claros
EBBL 301555Z AUTO 04010KT 9999 NCD 24/04 Q1021 BLU

Guión original por  Saratoga-weather.org Adaptado para la plantilla por  Weerstation Leuven